| Date | Time | Temp. (oF) | Dew Point (oF) | Rel. Hum. (%) | Press. (in.) | Wind Dir. | Wind Speed (mph) | Hourly Rainfall (in.) |
|
|---|---|---|---|---|---|---|---|---|---|
| 1 | 02/13 | 00:00 | 19 | 1 | 46 | 30.01 | NW | 4 | 0.00 |
| 2 | 02/12 | 23:00 | 20 | 2 | 47 | 30.00 | W | 10 | 0.00 |
| 3 | 02/12 | 22:00 | 20 | 4 | 51 | 30.00 | WNW | 5 | 0.00 |
| 4 | 02/12 | 21:00 | 20 | 4 | 51 | 29.99 | WNW | 12 | 0.00 |
| 5 | 02/12 | 20:00 | 20 | 4 | 51 | 29.99 | SSW | 2 | 0.00 |
| 6 | 02/12 | 19:00 | 20 | 4 | 50 | 29.98 | W | 2 | 0.00 |
| 7 | 02/12 | 18:00 | 21 | 4 | 49 | 29.96 | W | 3 | 0.00 |
| 8 | 02/12 | 17:00 | 24 | 5 | 45 | 29.93 | WNW | 8 | 0.00 |
| 9 | 02/12 | 16:00 | 24 | 5 | 45 | 29.92 | WNW | 16 | 0.00 |
| 10 | 02/12 | 15:00 | 25 | 7 | 46 | 29.92 | W | 12 | 0.00 |
| 11 | 02/12 | 14:00 | 25 | 6 | 44 | 29.93 | WNW | 16 | 0.00 |
| 12 | 02/12 | 13:00 | 25 | 7 | 47 | 29.93 | W | 9 | 0.00 |
| 13 | 02/12 | 12:00 | 23 | 6 | 48 | 29.94 | WNW | 7 | 0.00 |
| 14 | 02/12 | 11:00 | 23 | 5 | 46 | 29.92 | W | 4 | 0.00 |
| 15 | 02/12 | 10:00 | 23 | 6 | 49 | 29.90 | WNW | 9 | 0.00 |
| 16 | 02/12 | 09:00 | 24 | 8 | 51 | 29.86 | WNW | 10 | 0.00 |
| 17 | 02/12 | 08:00 | 27 | 17 | 67 | 29.80 | W | 8 | 0.00 |
| 18 | 02/12 | 07:00 | 30 | 22 | 72 | 29.72 | W | 13 | 0.00 |
| 19 | 02/12 | 06:00 | 29 | 21 | 74 | 29.67 | WNW | 11 | 0.00 |
| 20 | 02/12 | 05:00 | 28 | 19 | 71 | 29.65 | SSW | 9 | 0.00 |
| 21 | 02/12 | 04:00 | 27 | 18 | 69 | 29.66 | SSW | 12 | 0.00 |
| 22 | 02/12 | 03:00 | 21 | 20 | 96 | 29.71 | SSW | 4 | 0.00 |
| 23 | 02/12 | 02:00 | 16 | 15 | 98 | 29.74 | E | 0 | 0.00 |
| 24 | 02/12 | 01:00 | 15 | 14 | 97 | 29.78 | NNE | 0 | 0.00 |